sensor_id;sensor_type;location;lat;lon;timestamp;P1;durP1;ratioP1;P2;durP2;ratioP2
39098;SDS011;24844;52.380;7.018;2023-05-10T00:00:00;18.65;;;12.98;;
39098;SDS011;24844;52.380;7.018;2023-05-10T00:02:26;18.85;;;13.00;;
39098;SDS011;24844;52.380;7.018;2023-05-10T00:04:51;19.75;;;13.20;;
39098;SDS011;24844;52.380;7.018;2023-05-10T00:07:17;18.70;;;12.32;;
39098;SDS011;24844;52.380;7.018;2023-05-10T00:09:43;23.40;;;14.98;;
39098;SDS011;24844;52.380;7.018;2023-05-10T00:12:08;26.38;;;14.95;;
39098;SDS011;24844;52.380;7.018;2023-05-10T00:14:34;27.45;;;16.23;;
39098;SDS011;24844;52.380;7.018;2023-05-10T00:17:00;23.95;;;15.27;;
39098;SDS011;24844;52.380;7.018;2023-05-10T00:19:26;25.63;;;15.35;;
39098;SDS011;24844;52.380;7.018;2023-05-10T00:21:51;21.10;;;14.30;;
39098;SDS011;24844;52.380;7.018;2023-05-10T00:24:17;19.60;;;13.18;;
39098;SDS011;24844;52.380;7.018;2023-05-10T00:26:42;18.48;;;11.32;;
39098;SDS011;24844;52.380;7.018;2023-05-10T00:29:08;14.80;;;10.50;;
39098;SDS011;24844;52.380;7.018;2023-05-10T00:31:34;13.48;;;9.93;;
39098;SDS011;24844;52.380;7.018;2023-05-10T00:33:59;10.32;;;8.82;;
39098;SDS011;24844;52.380;7.018;2023-05-10T00:36:25;13.35;;;9.90;;
39098;SDS011;24844;52.380;7.018;2023-05-10T00:38:51;13.40;;;10.15;;
39098;SDS011;24844;52.380;7.018;2023-05-10T00:41:16;12.73;;;10.48;;
39098;SDS011;24844;52.380;7.018;2023-05-10T00:43:42;12.18;;;10.10;;
39098;SDS011;24844;52.380;7.018;2023-05-10T00:46:07;15.15;;;11.93;;
39098;SDS011;24844;52.380;7.018;2023-05-10T00:48:33;16.85;;;12.80;;
39098;SDS011;24844;52.380;7.018;2023-05-10T00:51:00;17.02;;;12.93;;
39098;SDS011;24844;52.380;7.018;2023-05-10T00:53:26;16.13;;;13.35;;
39098;SDS011;24844;52.380;7.018;2023-05-10T00:55:53;18.83;;;15.02;;
39098;SDS011;24844;52.380;7.018;2023-05-10T00:58:19;21.75;;;16.60;;
39098;SDS011;24844;52.380;7.018;2023-05-10T01:00:44;19.40;;;14.80;;
39098;SDS011;24844;52.380;7.018;2023-05-10T01:03:12;20.55;;;15.13;;
39098;SDS011;24844;52.380;7.018;2023-05-10T01:05:38;21.83;;;15.98;;
39098;SDS011;24844;52.380;7.018;2023-05-10T01:08:03;23.25;;;15.95;;
39098;SDS011;24844;52.380;7.018;2023-05-10T01:10:29;22.63;;;15.88;;
39098;SDS011;24844;52.380;7.018;2023-05-10T01:12:56;20.83;;;15.45;;
39098;SDS011;24844;52.380;7.018;2023-05-10T01:15:23;21.67;;;15.65;;
39098;SDS011;24844;52.380;7.018;2023-05-10T01:17:49;28.60;;;17.50;;
39098;SDS011;24844;52.380;7.018;2023-05-10T01:20:16;22.27;;;16.40;;
39098;SDS011;24844;52.380;7.018;2023-05-10T01:23:04;25.45;;;17.13;;
39098;SDS011;24844;52.380;7.018;2023-05-10T01:34:16;30.80;;;19.73;;
39098;SDS011;24844;52.380;7.018;2023-05-10T01:36:55;36.83;;;21.15;;
39098;SDS011;24844;52.380;7.018;2023-05-10T01:47:10;39.38;;;21.52;;
39098;SDS011;24844;52.380;7.018;2023-05-10T01:49:43;40.80;;;23.38;;
39098;SDS011;24844;52.380;7.018;2023-05-10T01:52:17;37.25;;;21.95;;
39098;SDS011;24844;52.380;7.018;2023-05-10T01:54:46;47.25;;;24.55;;
39098;SDS011;24844;52.380;7.018;2023-05-10T01:57:18;36.95;;;21.13;;
39098;SDS011;24844;52.380;7.018;2023-05-10T01:59:46;36.22;;;21.08;;
39098;SDS011;24844;52.380;7.018;2023-05-10T02:02:15;41.03;;;23.17;;
39098;SDS011;24844;52.380;7.018;2023-05-10T02:04:43;42.13;;;23.03;;
39098;SDS011;24844;52.380;7.018;2023-05-10T02:07:11;44.87;;;23.70;;
39098;SDS011;24844;52.380;7.018;2023-05-10T02:09:38;42.53;;;22.73;;
39098;SDS011;24844;52.380;7.018;2023-05-10T02:12:04;43.58;;;22.23;;
39098;SDS011;24844;52.380;7.018;2023-05-10T02:14:34;39.35;;;20.85;;
39098;SDS011;24844;52.380;7.018;2023-05-10T02:17:02;41.40;;;22.35;;
39098;SDS011;24844;52.380;7.018;2023-05-10T02:19:30;45.33;;;23.45;;
39098;SDS011;24844;52.380;7.018;2023-05-10T02:21:58;45.78;;;23.70;;
39098;SDS011;24844;52.380;7.018;2023-05-10T02:24:25;44.42;;;22.25;;
39098;SDS011;24844;52.380;7.018;2023-05-10T02:26:53;36.60;;;20.73;;
39098;SDS011;24844;52.380;7.018;2023-05-10T02:29:21;43.28;;;22.42;;
39098;SDS011;24844;52.380;7.018;2023-05-10T02:31:48;41.80;;;22.02;;
39098;SDS011;24844;52.380;7.018;2023-05-10T02:34:16;47.47;;;22.23;;
39098;SDS011;24844;52.380;7.018;2023-05-10T02:36:42;45.97;;;21.63;;
39098;SDS011;24844;52.380;7.018;2023-05-10T02:39:08;57.85;;;25.15;;
39098;SDS011;24844;52.380;7.018;2023-05-10T02:41:37;47.85;;;23.27;;
39098;SDS011;24844;52.380;7.018;2023-05-10T02:44:06;51.45;;;22.42;;
39098;SDS011;24844;52.380;7.018;2023-05-10T02:46:33;53.50;;;24.40;;
39098;SDS011;24844;52.380;7.018;2023-05-10T02:48:59;51.60;;;23.70;;
39098;SDS011;24844;52.380;7.018;2023-05-10T02:51:25;56.65;;;26.38;;
39098;SDS011;24844;52.380;7.018;2023-05-10T02:53:56;55.50;;;24.10;;
39098;SDS011;24844;52.380;7.018;2023-05-10T02:56:31;47.58;;;22.83;;
39098;SDS011;24844;52.380;7.018;2023-05-10T02:58:59;56.03;;;24.55;;
39098;SDS011;24844;52.380;7.018;2023-05-10T03:01:25;39.58;;;20.05;;
39098;SDS011;24844;52.380;7.018;2023-05-10T03:03:50;51.88;;;24.52;;
39098;SDS011;24844;52.380;7.018;2023-05-10T03:06:16;48.30;;;22.38;;
39098;SDS011;24844;52.380;7.018;2023-05-10T03:08:42;51.75;;;23.38;;
39098;SDS011;24844;52.380;7.018;2023-05-10T03:11:16;44.65;;;22.00;;
39098;SDS011;24844;52.380;7.018;2023-05-10T03:13:56;49.47;;;22.42;;
39098;SDS011;24844;52.380;7.018;2023-05-10T03:16:42;46.25;;;21.83;;
39098;SDS011;24844;52.380;7.018;2023-05-10T03:19:27;56.72;;;21.83;;
39098;SDS011;24844;52.380;7.018;2023-05-10T03:21:59;50.78;;;22.67;;
39098;SDS011;24844;52.380;7.018;2023-05-10T03:24:28;47.25;;;21.45;;
39098;SDS011;24844;52.380;7.018;2023-05-10T03:26:56;49.95;;;22.35;;
39098;SDS011;24844;52.380;7.018;2023-05-10T03:29:24;47.85;;;20.85;;
39098;SDS011;24844;52.380;7.018;2023-05-10T03:31:51;41.17;;;20.85;;
39098;SDS011;24844;52.380;7.018;2023-05-10T03:34:16;43.00;;;19.92;;
39098;SDS011;24844;52.380;7.018;2023-05-10T03:36:47;44.28;;;20.70;;
39098;SDS011;24844;52.380;7.018;2023-05-10T03:39:13;51.45;;;22.25;;
39098;SDS011;24844;52.380;7.018;2023-05-10T03:41:38;49.25;;;22.33;;
39098;SDS011;24844;52.380;7.018;2023-05-10T03:44:04;50.95;;;22.00;;
39098;SDS011;24844;52.380;7.018;2023-05-10T03:46:30;47.80;;;21.83;;
39098;SDS011;24844;52.380;7.018;2023-05-10T03:48:55;47.75;;;21.75;;
39098;SDS011;24844;52.380;7.018;2023-05-10T03:51:21;45.13;;;20.42;;
39098;SDS011;24844;52.380;7.018;2023-05-10T03:53:47;43.92;;;21.63;;
39098;SDS011;24844;52.380;7.018;2023-05-10T03:56:12;53.00;;;23.20;;
39098;SDS011;24844;52.380;7.018;2023-05-10T03:58:38;59.65;;;22.08;;
39098;SDS011;24844;52.380;7.018;2023-05-10T04:01:03;50.40;;;22.67;;
39098;SDS011;24844;52.380;7.018;2023-05-10T04:03:29;63.08;;;25.98;;
39098;SDS011;24844;52.380;7.018;2023-05-10T04:06:01;67.50;;;28.27;;
39098;SDS011;24844;52.380;7.018;2023-05-10T04:08:26;72.97;;;29.90;;
39098;SDS011;24844;52.380;7.018;2023-05-10T04:10:52;55.30;;;25.70;;
39098;SDS011;24844;52.380;7.018;2023-05-10T04:13:17;47.03;;;22.70;;
39098;SDS011;24844;52.380;7.018;2023-05-10T04:15:43;69.65;;;28.17;;
39098;SDS011;24844;52.380;7.018;2023-05-10T04:18:09;77.10;;;29.30;;
39098;SDS011;24844;52.380;7.018;2023-05-10T04:20:35;67.07;;;27.90;;
39098;SDS011;24844;52.380;7.018;2023-05-10T04:23:00;71.25;;;27.00;;
39098;SDS011;24844;52.380;7.018;2023-05-10T04:25:26;71.93;;;28.67;;
39098;SDS011;24844;52.380;7.018;2023-05-10T04:27:52;76.38;;;29.25;;
39098;SDS011;24844;52.380;7.018;2023-05-10T04:30:17;77.78;;;29.77;;
39098;SDS011;24844;52.380;7.018;2023-05-10T04:32:43;58.10;;;24.15;;
39098;SDS011;24844;52.380;7.018;2023-05-10T04:35:08;79.70;;;29.73;;
39098;SDS011;24844;52.380;7.018;2023-05-10T04:37:35;79.78;;;30.48;;
39098;SDS011;24844;52.380;7.018;2023-05-10T04:40:01;94.30;;;31.98;;
39098;SDS011;24844;52.380;7.018;2023-05-10T04:42:28;75.07;;;28.38;;
39098;SDS011;24844;52.380;7.018;2023-05-10T04:44:53;82.85;;;30.08;;
39098;SDS011;24844;52.380;7.018;2023-05-10T04:47:19;84.88;;;31.05;;
39098;SDS011;24844;52.380;7.018;2023-05-10T04:49:45;94.70;;;34.38;;
39098;SDS011;24844;52.380;7.018;2023-05-10T04:52:10;81.78;;;31.52;;
39098;SDS011;24844;52.380;7.018;2023-05-10T04:54:36;91.53;;;32.72;;
39098;SDS011;24844;52.380;7.018;2023-05-10T04:57:02;90.55;;;32.90;;
39098;SDS011;24844;52.380;7.018;2023-05-10T04:59:27;78.65;;;29.63;;
39098;SDS011;24844;52.380;7.018;2023-05-10T05:01:53;93.38;;;33.20;;
39098;SDS011;24844;52.380;7.018;2023-05-10T05:04:18;88.30;;;33.97;;
39098;SDS011;24844;52.380;7.018;2023-05-10T05:06:44;89.85;;;33.80;;
39098;SDS011;24844;52.380;7.018;2023-05-10T05:09:09;84.90;;;31.05;;
39098;SDS011;24844;52.380;7.018;2023-05-10T05:11:35;92.60;;;33.75;;
39098;SDS011;24844;52.380;7.018;2023-05-10T05:14:01;82.07;;;31.35;;
39098;SDS011;24844;52.380;7.018;2023-05-10T05:16:26;101.22;;;35.97;;
39098;SDS011;24844;52.380;7.018;2023-05-10T05:18:52;88.93;;;32.83;;
39098;SDS011;24844;52.380;7.018;2023-05-10T05:21:18;103.25;;;35.72;;
39098;SDS011;24844;52.380;7.018;2023-05-10T05:23:45;92.47;;;33.88;;
39098;SDS011;24844;52.380;7.018;2023-05-10T05:26:11;101.82;;;35.40;;
39098;SDS011;24844;52.380;7.018;2023-05-10T05:28:37;91.18;;;34.70;;
39098;SDS011;24844;52.380;7.018;2023-05-10T05:31:03;101.57;;;35.63;;
39098;SDS011;24844;52.380;7.018;2023-05-10T05:33:32;102.00;;;35.70;;
39098;SDS011;24844;52.380;7.018;2023-05-10T05:36:02;107.40;;;37.60;;
39098;SDS011;24844;52.380;7.018;2023-05-10T05:38:29;84.53;;;33.15;;
39098;SDS011;24844;52.380;7.018;2023-05-10T05:40:54;102.72;;;38.50;;
39098;SDS011;24844;52.380;7.018;2023-05-10T05:43:20;103.47;;;39.22;;
39098;SDS011;24844;52.380;7.018;2023-05-10T05:45:45;87.07;;;35.25;;
39098;SDS011;24844;52.380;7.018;2023-05-10T05:48:11;92.95;;;35.45;;
39098;SDS011;24844;52.380;7.018;2023-05-10T05:50:36;91.55;;;35.13;;
39098;SDS011;24844;52.380;7.018;2023-05-10T05:53:02;105.25;;;37.08;;
39098;SDS011;24844;52.380;7.018;2023-05-10T05:55:27;104.78;;;38.30;;
39098;SDS011;24844;52.380;7.018;2023-05-10T05:57:54;117.97;;;40.65;;
39098;SDS011;24844;52.380;7.018;2023-05-10T06:00:20;109.82;;;39.03;;
39098;SDS011;24844;52.380;7.018;2023-05-10T06:02:46;112.93;;;39.88;;
39098;SDS011;24844;52.380;7.018;2023-05-10T06:05:11;125.40;;;43.42;;
39098;SDS011;24844;52.380;7.018;2023-05-10T06:07:38;115.95;;;40.30;;
39098;SDS011;24844;52.380;7.018;2023-05-10T06:10:07;98.70;;;35.85;;
39098;SDS011;24844;52.380;7.018;2023-05-10T06:12:33;122.18;;;40.15;;
39098;SDS011;24844;52.380;7.018;2023-05-10T06:14:59;119.15;;;41.78;;
39098;SDS011;24844;52.380;7.018;2023-05-10T06:17:24;140.85;;;49.20;;
39098;SDS011;24844;52.380;7.018;2023-05-10T06:19:50;125.72;;;42.38;;
39098;SDS011;24844;52.380;7.018;2023-05-10T06:22:16;141.30;;;50.22;;
39098;SDS011;24844;52.380;7.018;2023-05-10T06:24:41;115.53;;;43.60;;
39098;SDS011;24844;52.380;7.018;2023-05-10T06:27:07;122.25;;;47.30;;
39098;SDS011;24844;52.380;7.018;2023-05-10T06:29:32;117.28;;;46.78;;
39098;SDS011;24844;52.380;7.018;2023-05-10T06:31:58;106.60;;;43.88;;
39098;SDS011;24844;52.380;7.018;2023-05-10T06:34:24;120.00;;;48.72;;
39098;SDS011;24844;52.380;7.018;2023-05-10T06:36:49;112.38;;;43.55;;
39098;SDS011;24844;52.380;7.018;2023-05-10T06:39:15;109.68;;;44.05;;
39098;SDS011;24844;52.380;7.018;2023-05-10T06:41:41;104.85;;;45.55;;
39098;SDS011;24844;52.380;7.018;2023-05-10T06:44:06;109.35;;;44.83;;
39098;SDS011;24844;52.380;7.018;2023-05-10T06:46:33;96.25;;;40.20;;
39098;SDS011;24844;52.380;7.018;2023-05-10T06:48:59;94.05;;;40.78;;
39098;SDS011;24844;52.380;7.018;2023-05-10T06:51:24;100.20;;;44.25;;
39098;SDS011;24844;52.380;7.018;2023-05-10T06:53:51;107.85;;;46.45;;
39098;SDS011;24844;52.380;7.018;2023-05-10T06:56:16;88.35;;;42.22;;
39098;SDS011;24844;52.380;7.018;2023-05-10T06:58:42;100.05;;;44.67;;
39098;SDS011;24844;52.380;7.018;2023-05-10T07:01:07;92.82;;;42.65;;
39098;SDS011;24844;52.380;7.018;2023-05-10T07:03:33;75.18;;;37.30;;
39098;SDS011;24844;52.380;7.018;2023-05-10T07:06:02;89.78;;;42.30;;
39098;SDS011;24844;52.380;7.018;2023-05-10T07:08:29;92.75;;;39.70;;
39098;SDS011;24844;52.380;7.018;2023-05-10T07:10:59;96.47;;;41.10;;
39098;SDS011;24844;52.380;7.018;2023-05-10T07:13:29;90.88;;;41.90;;
39098;SDS011;24844;52.380;7.018;2023-05-10T07:15:56;84.40;;;39.75;;
39098;SDS011;24844;52.380;7.018;2023-05-10T07:18:22;99.15;;;42.03;;
39098;SDS011;24844;52.380;7.018;2023-05-10T07:20:48;81.63;;;38.08;;
39098;SDS011;24844;52.380;7.018;2023-05-10T07:23:13;90.13;;;41.38;;
39098;SDS011;24844;52.380;7.018;2023-05-10T07:25:39;78.00;;;37.75;;
39098;SDS011;24844;52.380;7.018;2023-05-10T07:28:05;77.80;;;38.20;;
39098;SDS011;24844;52.380;7.018;2023-05-10T07:30:30;73.50;;;34.90;;
39098;SDS011;24844;52.380;7.018;2023-05-10T07:32:56;71.85;;;34.25;;
39098;SDS011;24844;52.380;7.018;2023-05-10T07:35:21;69.00;;;35.83;;
39098;SDS011;24844;52.380;7.018;2023-05-10T07:37:47;66.65;;;33.45;;
39098;SDS011;24844;52.380;7.018;2023-05-10T07:40:12;70.90;;;34.92;;
39098;SDS011;24844;52.380;7.018;2023-05-10T07:42:38;70.78;;;34.95;;
39098;SDS011;24844;52.380;7.018;2023-05-10T07:45:04;65.22;;;34.95;;
39098;SDS011;24844;52.380;7.018;2023-05-10T07:47:29;62.03;;;32.78;;
39098;SDS011;24844;52.380;7.018;2023-05-10T07:49:55;54.78;;;31.58;;
39098;SDS011;24844;52.380;7.018;2023-05-10T07:52:21;53.17;;;29.48;;
39098;SDS011;24844;52.380;7.018;2023-05-10T07:54:46;56.65;;;31.73;;
39098;SDS011;24844;52.380;7.018;2023-05-10T07:57:12;53.92;;;31.15;;
39098;SDS011;24844;52.380;7.018;2023-05-10T07:59:39;53.70;;;30.30;;
39098;SDS011;24844;52.380;7.018;2023-05-10T08:02:05;53.13;;;28.63;;
39098;SDS011;24844;52.380;7.018;2023-05-10T08:04:31;54.60;;;30.23;;
39098;SDS011;24844;52.380;7.018;2023-05-10T08:06:56;52.50;;;29.73;;
39098;SDS011;24844;52.380;7.018;2023-05-10T08:09:22;52.58;;;30.02;;
39098;SDS011;24844;52.380;7.018;2023-05-10T08:11:48;55.13;;;29.20;;
39098;SDS011;24844;52.380;7.018;2023-05-10T08:14:15;56.97;;;30.33;;
39098;SDS011;24844;52.380;7.018;2023-05-10T08:16:41;55.80;;;29.05;;
39098;SDS011;24844;52.380;7.018;2023-05-10T08:19:07;51.88;;;29.13;;
39098;SDS011;24844;52.380;7.018;2023-05-10T08:21:32;54.83;;;28.63;;
39098;SDS011;24844;52.380;7.018;2023-05-10T08:23:58;64.18;;;31.48;;
39098;SDS011;24844;52.380;7.018;2023-05-10T08:26:23;57.25;;;30.42;;
39098;SDS011;24844;52.380;7.018;2023-05-10T08:28:50;59.00;;;31.30;;
39098;SDS011;24844;52.380;7.018;2023-05-10T08:31:15;65.28;;;32.95;;
39098;SDS011;24844;52.380;7.018;2023-05-10T08:33:41;63.67;;;31.95;;
39098;SDS011;24844;52.380;7.018;2023-05-10T08:36:06;62.30;;;32.60;;
39098;SDS011;24844;52.380;7.018;2023-05-10T08:38:32;58.70;;;31.60;;
39098;SDS011;24844;52.380;7.018;2023-05-10T08:40:57;61.80;;;32.20;;
39098;SDS011;24844;52.380;7.018;2023-05-10T08:43:27;57.50;;;31.33;;
39098;SDS011;24844;52.380;7.018;2023-05-10T08:45:54;51.15;;;29.77;;
39098;SDS011;24844;52.380;7.018;2023-05-10T08:48:21;53.10;;;30.33;;
39098;SDS011;24844;52.380;7.018;2023-05-10T08:50:49;52.80;;;30.50;;
39098;SDS011;24844;52.380;7.018;2023-05-10T08:53:17;48.03;;;28.15;;
39098;SDS011;24844;52.380;7.018;2023-05-10T08:55:44;51.38;;;30.05;;
39098;SDS011;24844;52.380;7.018;2023-05-10T08:58:11;50.15;;;29.42;;
39098;SDS011;24844;52.380;7.018;2023-05-10T09:00:36;40.70;;;26.17;;
39098;SDS011;24844;52.380;7.018;2023-05-10T09:03:03;40.17;;;24.35;;
39098;SDS011;24844;52.380;7.018;2023-05-10T09:05:30;43.03;;;25.75;;
39098;SDS011;24844;52.380;7.018;2023-05-10T09:07:55;39.95;;;26.08;;
39098;SDS011;24844;52.380;7.018;2023-05-10T09:10:21;37.15;;;24.30;;
39098;SDS011;24844;52.380;7.018;2023-05-10T09:12:50;35.90;;;21.83;;
39098;SDS011;24844;52.380;7.018;2023-05-10T09:15:16;33.88;;;22.98;;
39098;SDS011;24844;52.380;7.018;2023-05-10T09:17:44;31.58;;;21.40;;
39098;SDS011;24844;52.380;7.018;2023-05-10T09:20:11;31.95;;;19.75;;
39098;SDS011;24844;52.380;7.018;2023-05-10T09:22:36;26.83;;;18.63;;
39098;SDS011;24844;52.380;7.018;2023-05-10T09:25:07;30.88;;;19.95;;
39098;SDS011;24844;52.380;7.018;2023-05-10T09:27:34;24.85;;;18.13;;
39098;SDS011;24844;52.380;7.018;2023-05-10T09:30:01;26.17;;;17.00;;
39098;SDS011;24844;52.380;7.018;2023-05-10T09:32:40;24.38;;;17.15;;
39098;SDS011;24844;52.380;7.018;2023-05-10T09:35:14;27.45;;;16.60;;
39098;SDS011;24844;52.380;7.018;2023-05-10T09:37:42;23.92;;;16.80;;
39098;SDS011;24844;52.380;7.018;2023-05-10T09:40:13;24.38;;;15.50;;
39098;SDS011;24844;52.380;7.018;2023-05-10T09:42:40;22.45;;;15.55;;
39098;SDS011;24844;52.380;7.018;2023-05-10T09:45:16;24.08;;;15.68;;
39098;SDS011;24844;52.380;7.018;2023-05-10T09:47:41;19.83;;;14.15;;
39098;SDS011;24844;52.380;7.018;2023-05-10T09:50:07;19.45;;;14.80;;
39098;SDS011;24844;52.380;7.018;2023-05-10T09:52:46;20.10;;;12.98;;
39098;SDS011;24844;52.380;7.018;2023-05-10T09:55:20;20.52;;;14.38;;
39098;SDS011;24844;52.380;7.018;2023-05-10T09:58:00;17.95;;;13.68;;
39098;SDS011;24844;52.380;7.018;2023-05-10T10:00:26;17.48;;;12.35;;
39098;SDS011;24844;52.380;7.018;2023-05-10T10:02:56;22.25;;;12.45;;
39098;SDS011;24844;52.380;7.018;2023-05-10T10:05:29;18.00;;;11.68;;
39098;SDS011;24844;52.380;7.018;2023-05-10T10:08:00;15.52;;;11.88;;
39098;SDS011;24844;52.380;7.018;2023-05-10T10:10:28;17.30;;;11.80;;
39098;SDS011;24844;52.380;7.018;2023-05-10T10:12:55;18.38;;;11.13;;
39098;SDS011;24844;52.380;7.018;2023-05-10T10:15:21;15.05;;;10.85;;
39098;SDS011;24844;52.380;7.018;2023-05-10T10:17:48;15.40;;;11.77;;
39098;SDS011;24844;52.380;7.018;2023-05-10T10:20:14;17.80;;;11.40;;
39098;SDS011;24844;52.380;7.018;2023-05-10T10:22:41;13.68;;;9.23;;
39098;SDS011;24844;52.380;7.018;2023-05-10T10:25:08;13.50;;;9.35;;
39098;SDS011;24844;52.380;7.018;2023-05-10T10:35:57;16.58;;;10.65;;
39098;SDS011;24844;52.380;7.018;2023-05-10T10:38:24;11.40;;;9.05;;
39098;SDS011;24844;52.380;7.018;2023-05-10T10:41:01;14.35;;;10.27;;
39098;SDS011;24844;52.380;7.018;2023-05-10T10:43:28;12.65;;;9.52;;
39098;SDS011;24844;52.380;7.018;2023-05-10T10:46:09;13.65;;;9.60;;
39098;SDS011;24844;52.380;7.018;2023-05-10T10:48:35;13.35;;;8.68;;
39098;SDS011;24844;52.380;7.018;2023-05-10T10:51:00;12.60;;;8.77;;
39098;SDS011;24844;52.380;7.018;2023-05-10T10:53:27;11.80;;;8.65;;
39098;SDS011;24844;52.380;7.018;2023-05-10T10:58:31;12.38;;;9.05;;
39098;SDS011;24844;52.380;7.018;2023-05-10T11:01:09;9.95;;;8.00;;
39098;SDS011;24844;52.380;7.018;2023-05-10T11:03:46;12.20;;;9.00;;
39098;SDS011;24844;52.380;7.018;2023-05-10T11:06:39;11.07;;;8.52;;
39098;SDS011;24844;52.380;7.018;2023-05-10T11:09:06;11.75;;;8.38;;
39098;SDS011;24844;52.380;7.018;2023-05-10T11:11:34;10.25;;;7.32;;
39098;SDS011;24844;52.380;7.018;2023-05-10T11:14:20;10.35;;;8.07;;
39098;SDS011;24844;52.380;7.018;2023-05-10T11:16:47;8.20;;;6.63;;
39098;SDS011;24844;52.380;7.018;2023-05-10T11:19:13;7.68;;;6.50;;
39098;SDS011;24844;52.380;7.018;2023-05-10T11:24:30;8.90;;;6.40;;
39098;SDS011;24844;52.380;7.018;2023-05-10T11:26:56;8.10;;;6.78;;
39098;SDS011;24844;52.380;7.018;2023-05-10T11:29:22;9.75;;;7.65;;
39098;SDS011;24844;52.380;7.018;2023-05-10T11:31:49;8.18;;;6.57;;
39098;SDS011;24844;52.380;7.018;2023-05-10T11:34:25;10.90;;;7.82;;
39098;SDS011;24844;52.380;7.018;2023-05-10T11:36:55;8.23;;;6.82;;
39098;SDS011;24844;52.380;7.018;2023-05-10T11:39:25;8.25;;;6.30;;
39098;SDS011;24844;52.380;7.018;2023-05-10T11:41:55;8.43;;;6.07;;
39098;SDS011;24844;52.380;7.018;2023-05-10T11:44:22;9.00;;;6.05;;
39098;SDS011;24844;52.380;7.018;2023-05-10T11:46:48;11.77;;;6.72;;
39098;SDS011;24844;52.380;7.018;2023-05-10T11:49:14;7.28;;;6.05;;
39098;SDS011;24844;52.380;7.018;2023-05-10T11:51:39;10.35;;;6.88;;
39098;SDS011;24844;52.380;7.018;2023-05-10T11:54:07;8.50;;;7.05;;
39098;SDS011;24844;52.380;7.018;2023-05-10T11:56:34;9.63;;;7.10;;
39098;SDS011;24844;52.380;7.018;2023-05-10T11:58:59;9.50;;;6.88;;
39098;SDS011;24844;52.380;7.018;2023-05-10T12:01:27;10.57;;;6.75;;
39098;SDS011;24844;52.380;7.018;2023-05-10T12:03:54;8.93;;;7.10;;
39098;SDS011;24844;52.380;7.018;2023-05-10T12:06:25;8.27;;;6.25;;
39098;SDS011;24844;52.380;7.018;2023-05-10T12:08:51;7.57;;;6.50;;
39098;SDS011;24844;52.380;7.018;2023-05-10T12:11:18;8.70;;;6.00;;
39098;SDS011;24844;52.380;7.018;2023-05-10T12:13:44;8.93;;;5.45;;
39098;SDS011;24844;52.380;7.018;2023-05-10T12:18:40;8.40;;;5.25;;
39098;SDS011;24844;52.380;7.018;2023-05-10T12:21:06;7.85;;;4.78;;
39098;SDS011;24844;52.380;7.018;2023-05-10T12:23:32;6.47;;;4.88;;
39098;SDS011;24844;52.380;7.018;2023-05-10T12:26:03;6.78;;;4.60;;
39098;SDS011;24844;52.380;7.018;2023-05-10T12:28:30;4.88;;;4.10;;
39098;SDS011;24844;52.380;7.018;2023-05-10T12:31:01;6.15;;;4.43;;
39098;SDS011;24844;52.380;7.018;2023-05-10T12:33:27;4.68;;;4.20;;
39098;SDS011;24844;52.380;7.018;2023-05-10T12:36:01;6.93;;;4.28;;
39098;SDS011;24844;52.380;7.018;2023-05-10T12:38:37;4.63;;;3.88;;
39098;SDS011;24844;52.380;7.018;2023-05-10T12:41:13;7.05;;;4.65;;
39098;SDS011;24844;52.380;7.018;2023-05-10T12:43:40;6.90;;;4.60;;
39098;SDS011;24844;52.380;7.018;2023-05-10T12:46:07;7.15;;;4.70;;
39098;SDS011;24844;52.380;7.018;2023-05-10T12:48:34;5.25;;;4.38;;
39098;SDS011;24844;52.380;7.018;2023-05-10T12:51:01;6.68;;;4.93;;
39098;SDS011;24844;52.380;7.018;2023-05-10T12:53:27;5.90;;;4.97;;
39098;SDS011;24844;52.380;7.018;2023-05-10T12:55:53;5.90;;;4.82;;
39098;SDS011;24844;52.380;7.018;2023-05-10T12:58:18;6.70;;;4.60;;
39098;SDS011;24844;52.380;7.018;2023-05-10T13:00:44;8.68;;;5.30;;
39098;SDS011;24844;52.380;7.018;2023-05-10T13:03:10;8.23;;;5.05;;
39098;SDS011;24844;52.380;7.018;2023-05-10T13:05:36;6.80;;;4.30;;
39098;SDS011;24844;52.380;7.018;2023-05-10T13:08:01;8.40;;;5.70;;
39098;SDS011;24844;52.380;7.018;2023-05-10T13:10:29;7.03;;;4.68;;
39098;SDS011;24844;52.380;7.018;2023-05-10T13:12:55;11.23;;;6.00;;
39098;SDS011;24844;52.380;7.018;2023-05-10T13:15:21;7.82;;;5.43;;
39098;SDS011;24844;52.380;7.018;2023-05-10T13:17:47;5.45;;;4.28;;
39098;SDS011;24844;52.380;7.018;2023-05-10T13:20:12;5.38;;;4.38;;
39098;SDS011;24844;52.380;7.018;2023-05-10T13:22:38;7.07;;;4.95;;
39098;SDS011;24844;52.380;7.018;2023-05-10T13:25:03;5.93;;;4.70;;
39098;SDS011;24844;52.380;7.018;2023-05-10T13:27:29;5.25;;;4.63;;
39098;SDS011;24844;52.380;7.018;2023-05-10T13:29:55;7.90;;;4.70;;
39098;SDS011;24844;52.380;7.018;2023-05-10T13:32:20;5.68;;;4.22;;
39098;SDS011;24844;52.380;7.018;2023-05-10T13:34:46;6.20;;;4.30;;
39098;SDS011;24844;52.380;7.018;2023-05-10T13:37:12;7.25;;;3.85;;
39098;SDS011;24844;52.380;7.018;2023-05-10T13:39:37;5.35;;;4.38;;
39098;SDS011;24844;52.380;7.018;2023-05-10T13:42:03;8.00;;;5.28;;
39098;SDS011;24844;52.380;7.018;2023-05-10T13:44:29;4.70;;;3.53;;
39098;SDS011;24844;52.380;7.018;2023-05-10T13:46:56;4.30;;;3.47;;
39098;SDS011;24844;52.380;7.018;2023-05-10T13:49:21;6.20;;;3.75;;
39098;SDS011;24844;52.380;7.018;2023-05-10T13:51:47;3.95;;;3.33;;
39098;SDS011;24844;52.380;7.018;2023-05-10T13:54:13;5.82;;;4.07;;
39098;SDS011;24844;52.380;7.018;2023-05-10T13:56:39;5.78;;;4.13;;
39098;SDS011;24844;52.380;7.018;2023-05-10T13:59:08;7.90;;;4.72;;
39098;SDS011;24844;52.380;7.018;2023-05-10T14:01:34;6.40;;;4.70;;
39098;SDS011;24844;52.380;7.018;2023-05-10T14:03:59;6.72;;;4.05;;
39098;SDS011;24844;52.380;7.018;2023-05-10T14:06:25;6.32;;;4.57;;
39098;SDS011;24844;52.380;7.018;2023-05-10T14:08:52;5.88;;;4.22;;
39098;SDS011;24844;52.380;7.018;2023-05-10T14:11:18;4.93;;;3.65;;
39098;SDS011;24844;52.380;7.018;2023-05-10T14:13:44;6.18;;;5.10;;
39098;SDS011;24844;52.380;7.018;2023-05-10T14:16:10;6.28;;;5.10;;
39098;SDS011;24844;52.380;7.018;2023-05-10T14:18:36;6.97;;;4.40;;
39098;SDS011;24844;52.380;7.018;2023-05-10T14:21:02;6.82;;;5.50;;
39098;SDS011;24844;52.380;7.018;2023-05-10T14:23:28;5.25;;;4.60;;
39098;SDS011;24844;52.380;7.018;2023-05-10T14:25:55;6.78;;;4.88;;
39098;SDS011;24844;52.380;7.018;2023-05-10T14:28:20;8.50;;;5.00;;
39098;SDS011;24844;52.380;7.018;2023-05-10T14:30:47;6.38;;;4.50;;
39098;SDS011;24844;52.380;7.018;2023-05-10T14:33:13;5.05;;;4.40;;
39098;SDS011;24844;52.380;7.018;2023-05-10T14:35:38;4.95;;;4.13;;
39098;SDS011;24844;52.380;7.018;2023-05-10T14:38:04;5.03;;;4.30;;
39098;SDS011;24844;52.380;7.018;2023-05-10T14:40:30;5.78;;;4.03;;
39098;SDS011;24844;52.380;7.018;2023-05-10T14:42:56;5.90;;;3.90;;
39098;SDS011;24844;52.380;7.018;2023-05-10T14:45:21;6.55;;;4.47;;
39098;SDS011;24844;52.380;7.018;2023-05-10T14:47:47;5.30;;;4.00;;
39098;SDS011;24844;52.380;7.018;2023-05-10T14:50:14;6.80;;;4.55;;
39098;SDS011;24844;52.380;7.018;2023-05-10T14:52:40;7.65;;;5.40;;
39098;SDS011;24844;52.380;7.018;2023-05-10T14:55:05;9.40;;;5.10;;
39098;SDS011;24844;52.380;7.018;2023-05-10T14:57:31;6.38;;;5.38;;
39098;SDS011;24844;52.380;7.018;2023-05-10T14:59:58;6.93;;;4.85;;